createdAt,value
2023-03-23T16:01:40.526Z,98389.81
2023-03-23T16:06:44.142Z,98426.31
2023-03-23T16:11:46.431Z,98419.84
2023-03-23T16:16:53.051Z,98432.03
2023-03-23T16:21:55.401Z,98460.75
2023-03-23T16:26:57.664Z,98411.03
2023-03-23T16:31:59.760Z,98442.06
2023-03-23T16:37:02.727Z,98437.47
2023-03-23T16:42:04.862Z,98445.97
2023-03-23T16:47:06.995Z,98457.78
2023-03-23T16:52:09.327Z,98423.03
2023-03-23T16:57:12.263Z,98463.34
2023-03-23T17:02:14.506Z,98385.81
2023-03-23T17:07:16.768Z,98442.03
2023-03-23T17:12:19.044Z,98404.94
2023-03-23T17:17:21.179Z,98441.31
2023-03-23T17:22:23.954Z,98437.16
2023-03-23T17:27:26.673Z,98434.38
2023-03-23T17:32:29.163Z,98394.06
2023-03-23T17:37:31.891Z,98415.00
2023-03-23T17:42:34.517Z,98361.91
2023-03-23T17:47:37.181Z,98375.28
2023-03-23T17:52:39.866Z,98432.97
2023-03-23T17:57:43.378Z,98400.13
2023-03-23T18:02:47.053Z,98385.94
2023-03-23T18:07:49.418Z,98402.50
2023-03-23T18:12:51.675Z,98361.38
2023-03-23T18:17:53.896Z,98393.19
2023-03-23T18:22:57.789Z,98351.09
2023-03-23T18:28:05.325Z,98415.44
2023-03-23T18:33:09.319Z,98316.03
2023-03-23T18:38:12.993Z,98302.97
2023-03-23T18:43:15.232Z,98351.47
2023-03-23T18:48:17.509Z,98338.88
2023-03-23T18:53:21.207Z,98441.50
2023-03-23T18:58:23.444Z,98395.59
2023-03-23T19:03:26.411Z,98339.66
2023-03-23T19:08:30.225Z,98400.13
2023-03-23T19:13:37.560Z,98365.69
2023-03-23T19:18:41.217Z,98415.59
2023-03-23T19:23:43.677Z,98337.53
2023-03-23T19:29:21.481Z,98387.50
2023-03-23T19:34:08.747Z,98419.31
2023-03-23T19:39:11.380Z,98357.19
2023-03-23T19:44:13.828Z,98344.69
2023-03-23T19:49:16.338Z,98316.31
2023-03-23T19:54:19.110Z,98330.81
2023-03-23T19:59:21.225Z,98348.34
2023-03-23T20:04:24.307Z,98327.00
2023-03-23T20:09:27.427Z,98330.69
2023-03-23T20:14:30.337Z,98301.69
2023-03-23T20:19:32.607Z,98297.00
2023-03-23T20:24:34.904Z,98312.50
2023-03-23T20:29:37.071Z,98263.63
2023-03-23T20:34:39.269Z,98272.50
2023-03-23T20:39:42.411Z,98244.81
2023-03-23T20:44:44.812Z,98231.22
2023-03-23T20:49:53.067Z,98230.22
2023-03-23T20:54:56.487Z,98246.66
2023-03-23T20:59:59.112Z,98231.91
2023-03-23T21:05:04.919Z,98251.25
2023-03-23T21:10:07.371Z,98189.97
2023-03-23T21:15:10.202Z,98198.00
2023-03-23T21:20:12.766Z,98198.88
2023-03-23T21:25:15.343Z,98221.41
2023-03-23T21:30:20.714Z,98224.53
2023-03-23T21:35:23.168Z,98193.56
2023-03-23T21:40:25.271Z,98168.94
2023-03-23T21:45:29.086Z,98196.34
2023-03-23T21:50:35.637Z,98188.91
2023-03-23T21:55:37.940Z,98179.88
2023-03-23T22:00:41.466Z,98201.59
2023-03-23T22:05:43.764Z,98196.31
2023-03-23T22:11:00.390Z,98208.25
2023-03-23T22:16:07.980Z,98231.63
2023-03-23T22:21:10.807Z,98227.06
2023-03-23T22:26:16.708Z,98212.03
2023-03-23T22:31:27.497Z,98264.25
2023-03-23T22:36:33.154Z,98222.84
2023-03-23T22:41:39.821Z,98209.44
2023-03-23T22:46:42.770Z,98121.41
2023-03-23T22:51:45.634Z,98164.59
2023-03-23T22:56:48.067Z,98132.84
2023-03-23T23:01:50.285Z,98135.44
2023-03-23T23:07:00.385Z,98171.63
2023-03-23T23:12:10.574Z,98165.50
2023-03-23T23:17:12.699Z,98181.06
2023-03-23T23:22:19.261Z,98147.91
2023-03-23T23:27:22.030Z,98131.75
2023-03-23T23:32:25.330Z,98140.94
2023-03-23T23:37:27.922Z,98104.06
2023-03-23T23:42:30.139Z,98067.09
2023-03-23T23:47:32.470Z,98129.84
2023-03-23T23:52:36.781Z,98064.41
2023-03-23T23:57:39.423Z,98109.47
